sensor_id;sensor_type;location;lat;lon;timestamp;P1;durP1;ratioP1;P2;durP2;ratioP2
26936;SDS011;14495;48.116;11.676;2023-06-10T00:01:39;9.70;;;6.53;;
26936;SDS011;14495;48.116;11.676;2023-06-10T00:04:05;8.50;;;5.50;;
26936;SDS011;14495;48.116;11.676;2023-06-10T00:06:31;8.82;;;5.57;;
26936;SDS011;14495;48.116;11.676;2023-06-10T00:09:01;8.48;;;6.53;;
26936;SDS011;14495;48.116;11.676;2023-06-10T00:11:29;7.72;;;5.78;;
26936;SDS011;14495;48.116;11.676;2023-06-10T00:13:58;11.55;;;5.70;;
26936;SDS011;14495;48.116;11.676;2023-06-10T00:16:23;7.55;;;5.72;;
26936;SDS011;14495;48.116;11.676;2023-06-10T00:18:50;9.52;;;6.05;;
26936;SDS011;14495;48.116;11.676;2023-06-10T00:21:16;8.38;;;5.70;;
26936;SDS011;14495;48.116;11.676;2023-06-10T00:23:42;7.88;;;5.43;;
26936;SDS011;14495;48.116;11.676;2023-06-10T00:26:08;7.65;;;5.68;;
26936;SDS011;14495;48.116;11.676;2023-06-10T00:28:34;9.85;;;5.68;;
26936;SDS011;14495;48.116;11.676;2023-06-10T00:31:00;8.68;;;5.85;;
26936;SDS011;14495;48.116;11.676;2023-06-10T00:33:29;8.77;;;5.70;;
26936;SDS011;14495;48.116;11.676;2023-06-10T00:35:54;8.55;;;5.78;;
26936;SDS011;14495;48.116;11.676;2023-06-10T00:38:22;8.00;;;5.70;;
26936;SDS011;14495;48.116;11.676;2023-06-10T00:40:48;8.82;;;5.75;;
26936;SDS011;14495;48.116;11.676;2023-06-10T00:43:13;8.85;;;5.70;;
26936;SDS011;14495;48.116;11.676;2023-06-10T00:45:40;6.30;;;5.18;;
26936;SDS011;14495;48.116;11.676;2023-06-10T00:48:05;7.78;;;5.57;;
26936;SDS011;14495;48.116;11.676;2023-06-10T00:50:31;7.18;;;5.82;;
26936;SDS011;14495;48.116;11.676;2023-06-10T00:52:58;7.88;;;4.95;;
26936;SDS011;14495;48.116;11.676;2023-06-10T00:55:24;9.55;;;5.65;;
26936;SDS011;14495;48.116;11.676;2023-06-10T00:57:52;7.82;;;5.53;;
26936;SDS011;14495;48.116;11.676;2023-06-10T01:02:47;6.60;;;5.07;;
26936;SDS011;14495;48.116;11.676;2023-06-10T01:05:14;6.97;;;4.68;;
26936;SDS011;14495;48.116;11.676;2023-06-10T01:07:48;6.72;;;4.80;;
26936;SDS011;14495;48.116;11.676;2023-06-10T01:10:42;7.00;;;4.85;;
26936;SDS011;14495;48.116;11.676;2023-06-10T01:13:14;7.95;;;5.45;;
26936;SDS011;14495;48.116;11.676;2023-06-10T01:15:40;7.63;;;5.07;;
26936;SDS011;14495;48.116;11.676;2023-06-10T01:18:07;7.45;;;4.75;;
26936;SDS011;14495;48.116;11.676;2023-06-10T01:20:34;7.95;;;5.70;;
26936;SDS011;14495;48.116;11.676;2023-06-10T01:23:05;6.75;;;5.20;;
26936;SDS011;14495;48.116;11.676;2023-06-10T01:25:31;6.93;;;5.00;;
26936;SDS011;14495;48.116;11.676;2023-06-10T01:28:14;6.75;;;5.20;;
26936;SDS011;14495;48.116;11.676;2023-06-10T01:33:39;8.70;;;5.45;;
26936;SDS011;14495;48.116;11.676;2023-06-10T01:36:07;6.75;;;5.38;;
26936;SDS011;14495;48.116;11.676;2023-06-10T01:38:39;7.55;;;5.82;;
26936;SDS011;14495;48.116;11.676;2023-06-10T01:41:07;7.22;;;5.15;;
26936;SDS011;14495;48.116;11.676;2023-06-10T01:43:34;6.65;;;5.10;;
26936;SDS011;14495;48.116;11.676;2023-06-10T01:46:02;8.15;;;5.65;;
26936;SDS011;14495;48.116;11.676;2023-06-10T01:48:27;6.75;;;5.38;;
26936;SDS011;14495;48.116;11.676;2023-06-10T01:50:53;7.40;;;5.28;;
26936;SDS011;14495;48.116;11.676;2023-06-10T01:53:19;8.15;;;5.93;;
26936;SDS011;14495;48.116;11.676;2023-06-10T01:55:45;8.07;;;5.88;;
26936;SDS011;14495;48.116;11.676;2023-06-10T01:58:10;7.70;;;5.95;;
26936;SDS011;14495;48.116;11.676;2023-06-10T02:00:35;8.48;;;6.00;;
26936;SDS011;14495;48.116;11.676;2023-06-10T02:03:01;8.77;;;5.90;;
26936;SDS011;14495;48.116;11.676;2023-06-10T02:05:26;10.00;;;5.72;;
26936;SDS011;14495;48.116;11.676;2023-06-10T02:07:51;9.07;;;6.13;;
26936;SDS011;14495;48.116;11.676;2023-06-10T02:10:17;7.47;;;5.07;;
26936;SDS011;14495;48.116;11.676;2023-06-10T02:12:42;9.55;;;6.30;;
26936;SDS011;14495;48.116;11.676;2023-06-10T02:15:07;11.35;;;5.78;;
26936;SDS011;14495;48.116;11.676;2023-06-10T02:17:33;9.48;;;6.18;;
26936;SDS011;14495;48.116;11.676;2023-06-10T02:19:58;10.40;;;5.60;;
26936;SDS011;14495;48.116;11.676;2023-06-10T02:22:24;7.32;;;5.60;;
26936;SDS011;14495;48.116;11.676;2023-06-10T02:24:50;8.50;;;5.90;;
26936;SDS011;14495;48.116;11.676;2023-06-10T02:27:15;7.80;;;5.57;;
26936;SDS011;14495;48.116;11.676;2023-06-10T02:29:41;11.50;;;5.72;;
26936;SDS011;14495;48.116;11.676;2023-06-10T02:32:07;8.63;;;6.30;;
26936;SDS011;14495;48.116;11.676;2023-06-10T02:34:35;9.77;;;6.20;;
26936;SDS011;14495;48.116;11.676;2023-06-10T02:37:01;6.85;;;5.35;;
26936;SDS011;14495;48.116;11.676;2023-06-10T02:39:27;8.55;;;5.85;;
26936;SDS011;14495;48.116;11.676;2023-06-10T02:41:53;9.38;;;6.30;;
26936;SDS011;14495;48.116;11.676;2023-06-10T02:44:18;7.22;;;5.30;;
26936;SDS011;14495;48.116;11.676;2023-06-10T02:46:43;7.53;;;5.57;;
26936;SDS011;14495;48.116;11.676;2023-06-10T02:49:09;7.88;;;5.82;;
26936;SDS011;14495;48.116;11.676;2023-06-10T02:51:34;8.75;;;6.30;;
26936;SDS011;14495;48.116;11.676;2023-06-10T02:54:00;10.50;;;6.63;;
26936;SDS011;14495;48.116;11.676;2023-06-10T02:56:26;10.82;;;6.25;;
26936;SDS011;14495;48.116;11.676;2023-06-10T02:58:52;8.57;;;5.72;;
26936;SDS011;14495;48.116;11.676;2023-06-10T03:01:17;8.75;;;5.50;;
26936;SDS011;14495;48.116;11.676;2023-06-10T03:03:43;9.32;;;6.25;;
26936;SDS011;14495;48.116;11.676;2023-06-10T03:06:10;8.63;;;6.30;;
26936;SDS011;14495;48.116;11.676;2023-06-10T03:08:37;8.32;;;5.78;;
26936;SDS011;14495;48.116;11.676;2023-06-10T03:11:06;7.57;;;5.00;;
26936;SDS011;14495;48.116;11.676;2023-06-10T03:13:31;7.82;;;5.88;;
26936;SDS011;14495;48.116;11.676;2023-06-10T03:15:57;7.80;;;5.78;;
26936;SDS011;14495;48.116;11.676;2023-06-10T03:18:25;10.52;;;6.25;;
26936;SDS011;14495;48.116;11.676;2023-06-10T03:20:51;9.05;;;6.93;;
26936;SDS011;14495;48.116;11.676;2023-06-10T03:23:17;8.32;;;5.80;;
26936;SDS011;14495;48.116;11.676;2023-06-10T03:25:43;8.57;;;6.57;;
26936;SDS011;14495;48.116;11.676;2023-06-10T03:28:09;8.52;;;5.80;;
26936;SDS011;14495;48.116;11.676;2023-06-10T03:30:34;7.75;;;5.55;;
26936;SDS011;14495;48.116;11.676;2023-06-10T03:32:59;6.90;;;5.10;;
26936;SDS011;14495;48.116;11.676;2023-06-10T03:35:25;8.35;;;6.13;;
26936;SDS011;14495;48.116;11.676;2023-06-10T03:37:51;11.25;;;5.97;;
26936;SDS011;14495;48.116;11.676;2023-06-10T03:40:16;7.07;;;5.40;;
26936;SDS011;14495;48.116;11.676;2023-06-10T03:42:41;8.65;;;6.40;;
26936;SDS011;14495;48.116;11.676;2023-06-10T03:45:09;8.25;;;6.15;;
26936;SDS011;14495;48.116;11.676;2023-06-10T03:47:35;6.60;;;5.18;;
26936;SDS011;14495;48.116;11.676;2023-06-10T03:50:02;7.03;;;5.38;;
26936;SDS011;14495;48.116;11.676;2023-06-10T03:52:28;8.02;;;5.65;;
26936;SDS011;14495;48.116;11.676;2023-06-10T03:54:54;7.82;;;6.22;;
26936;SDS011;14495;48.116;11.676;2023-06-10T03:57:19;8.25;;;5.50;;
26936;SDS011;14495;48.116;11.676;2023-06-10T03:59:44;7.28;;;5.47;;
26936;SDS011;14495;48.116;11.676;2023-06-10T04:02:09;8.43;;;5.85;;
26936;SDS011;14495;48.116;11.676;2023-06-10T04:04:35;7.55;;;6.05;;
26936;SDS011;14495;48.116;11.676;2023-06-10T04:07:02;8.32;;;6.22;;
26936;SDS011;14495;48.116;11.676;2023-06-10T04:09:28;8.80;;;6.07;;
26936;SDS011;14495;48.116;11.676;2023-06-10T04:11:53;8.45;;;5.90;;
26936;SDS011;14495;48.116;11.676;2023-06-10T04:14:19;9.50;;;6.32;;
26936;SDS011;14495;48.116;11.676;2023-06-10T04:16:44;7.78;;;5.93;;
26936;SDS011;14495;48.116;11.676;2023-06-10T04:19:12;8.68;;;5.85;;
26936;SDS011;14495;48.116;11.676;2023-06-10T04:21:37;9.27;;;6.47;;
26936;SDS011;14495;48.116;11.676;2023-06-10T04:24:03;9.40;;;6.65;;
26936;SDS011;14495;48.116;11.676;2023-06-10T04:26:28;9.82;;;7.57;;
26936;SDS011;14495;48.116;11.676;2023-06-10T04:28:54;13.45;;;8.43;;
26936;SDS011;14495;48.116;11.676;2023-06-10T04:31:19;12.40;;;7.65;;
26936;SDS011;14495;48.116;11.676;2023-06-10T04:33:45;11.93;;;8.13;;
26936;SDS011;14495;48.116;11.676;2023-06-10T04:36:13;12.45;;;8.43;;
26936;SDS011;14495;48.116;11.676;2023-06-10T04:38:39;11.23;;;7.70;;
26936;SDS011;14495;48.116;11.676;2023-06-10T04:41:05;13.02;;;8.20;;
26936;SDS011;14495;48.116;11.676;2023-06-10T04:43:31;11.45;;;8.35;;
26936;SDS011;14495;48.116;11.676;2023-06-10T04:45:56;10.18;;;7.80;;
26936;SDS011;14495;48.116;11.676;2023-06-10T04:48:21;13.32;;;7.75;;
26936;SDS011;14495;48.116;11.676;2023-06-10T04:50:50;11.70;;;8.50;;
26936;SDS011;14495;48.116;11.676;2023-06-10T04:53:15;11.32;;;7.30;;
26936;SDS011;14495;48.116;11.676;2023-06-10T04:55:41;13.75;;;7.78;;
26936;SDS011;14495;48.116;11.676;2023-06-10T04:58:09;12.05;;;7.55;;
26936;SDS011;14495;48.116;11.676;2023-06-10T05:00:34;11.05;;;7.75;;
26936;SDS011;14495;48.116;11.676;2023-06-10T05:03:00;14.07;;;8.18;;
26936;SDS011;14495;48.116;11.676;2023-06-10T05:05:27;12.82;;;8.32;;
26936;SDS011;14495;48.116;11.676;2023-06-10T05:07:53;10.32;;;7.72;;
26936;SDS011;14495;48.116;11.676;2023-06-10T05:10:18;12.05;;;7.95;;
26936;SDS011;14495;48.116;11.676;2023-06-10T05:12:44;10.98;;;7.82;;
26936;SDS011;14495;48.116;11.676;2023-06-10T05:15:09;11.23;;;7.82;;
26936;SDS011;14495;48.116;11.676;2023-06-10T05:17:35;11.52;;;7.50;;
26936;SDS011;14495;48.116;11.676;2023-06-10T05:20:03;13.40;;;8.15;;
26936;SDS011;14495;48.116;11.676;2023-06-10T05:22:32;14.50;;;8.30;;
26936;SDS011;14495;48.116;11.676;2023-06-10T05:24:59;12.30;;;7.82;;
26936;SDS011;14495;48.116;11.676;2023-06-10T05:27:24;11.10;;;7.97;;
26936;SDS011;14495;48.116;11.676;2023-06-10T05:29:50;11.85;;;7.88;;
26936;SDS011;14495;48.116;11.676;2023-06-10T05:32:16;12.02;;;7.97;;
26936;SDS011;14495;48.116;11.676;2023-06-10T05:34:44;13.10;;;7.45;;
26936;SDS011;14495;48.116;11.676;2023-06-10T05:37:12;11.57;;;8.02;;
26936;SDS011;14495;48.116;11.676;2023-06-10T05:39:38;11.75;;;8.27;;
26936;SDS011;14495;48.116;11.676;2023-06-10T05:42:05;11.82;;;8.02;;
26936;SDS011;14495;48.116;11.676;2023-06-10T05:44:31;10.55;;;7.90;;
26936;SDS011;14495;48.116;11.676;2023-06-10T05:46:57;16.63;;;8.57;;
26936;SDS011;14495;48.116;11.676;2023-06-10T05:49:22;11.90;;;8.32;;
26936;SDS011;14495;48.116;11.676;2023-06-10T05:51:47;11.20;;;7.90;;
26936;SDS011;14495;48.116;11.676;2023-06-10T05:54:17;10.73;;;7.68;;
26936;SDS011;14495;48.116;11.676;2023-06-10T05:56:42;11.60;;;8.00;;
26936;SDS011;14495;48.116;11.676;2023-06-10T05:59:08;12.35;;;8.20;;
26936;SDS011;14495;48.116;11.676;2023-06-10T06:01:33;10.45;;;7.40;;
26936;SDS011;14495;48.116;11.676;2023-06-10T06:03:58;9.70;;;7.05;;
26936;SDS011;14495;48.116;11.676;2023-06-10T06:06:24;9.55;;;6.43;;
26936;SDS011;14495;48.116;11.676;2023-06-10T06:08:50;9.93;;;6.78;;
26936;SDS011;14495;48.116;11.676;2023-06-10T06:11:15;7.80;;;6.07;;
26936;SDS011;14495;48.116;11.676;2023-06-10T06:13:40;9.35;;;6.25;;
26936;SDS011;14495;48.116;11.676;2023-06-10T06:16:07;7.15;;;5.93;;
26936;SDS011;14495;48.116;11.676;2023-06-10T06:18:32;7.07;;;5.75;;
26936;SDS011;14495;48.116;11.676;2023-06-10T06:20:57;9.23;;;6.78;;
26936;SDS011;14495;48.116;11.676;2023-06-10T06:23:25;8.38;;;5.90;;
26936;SDS011;14495;48.116;11.676;2023-06-10T06:25:50;7.32;;;6.15;;
26936;SDS011;14495;48.116;11.676;2023-06-10T06:28:16;9.25;;;6.53;;
26936;SDS011;14495;48.116;11.676;2023-06-10T06:30:41;7.38;;;6.07;;
26936;SDS011;14495;48.116;11.676;2023-06-10T06:33:06;6.78;;;5.53;;
26936;SDS011;14495;48.116;11.676;2023-06-10T06:35:35;7.50;;;6.05;;
26936;SDS011;14495;48.116;11.676;2023-06-10T06:38:03;6.72;;;5.50;;
26936;SDS011;14495;48.116;11.676;2023-06-10T06:40:29;9.32;;;6.00;;
26936;SDS011;14495;48.116;11.676;2023-06-10T06:42:54;7.72;;;5.60;;
26936;SDS011;14495;48.116;11.676;2023-06-10T06:45:20;8.00;;;6.20;;
26936;SDS011;14495;48.116;11.676;2023-06-10T06:47:45;8.77;;;6.22;;
26936;SDS011;14495;48.116;11.676;2023-06-10T06:50:10;7.88;;;5.95;;
26936;SDS011;14495;48.116;11.676;2023-06-10T06:52:36;8.60;;;6.70;;
26936;SDS011;14495;48.116;11.676;2023-06-10T06:55:01;8.38;;;5.93;;
26936;SDS011;14495;48.116;11.676;2023-06-10T06:57:27;7.32;;;6.07;;
26936;SDS011;14495;48.116;11.676;2023-06-10T06:59:52;10.73;;;5.85;;
26936;SDS011;14495;48.116;11.676;2023-06-10T07:02:17;9.23;;;6.05;;
26936;SDS011;14495;48.116;11.676;2023-06-10T07:04:44;7.45;;;5.63;;
26936;SDS011;14495;48.116;11.676;2023-06-10T07:07:10;13.43;;;5.88;;
26936;SDS011;14495;48.116;11.676;2023-06-10T07:09:38;7.60;;;5.72;;
26936;SDS011;14495;48.116;11.676;2023-06-10T07:12:04;7.88;;;5.45;;
26936;SDS011;14495;48.116;11.676;2023-06-10T07:14:30;6.63;;;4.93;;
26936;SDS011;14495;48.116;11.676;2023-06-10T07:16:55;7.32;;;5.53;;
26936;SDS011;14495;48.116;11.676;2023-06-10T07:19:21;9.98;;;6.13;;
26936;SDS011;14495;48.116;11.676;2023-06-10T07:21:46;6.25;;;5.15;;
26936;SDS011;14495;48.116;11.676;2023-06-10T07:24:12;6.90;;;4.97;;
26936;SDS011;14495;48.116;11.676;2023-06-10T07:26:38;7.68;;;5.68;;
26936;SDS011;14495;48.116;11.676;2023-06-10T07:29:03;9.57;;;5.47;;
26936;SDS011;14495;48.116;11.676;2023-06-10T07:31:28;6.90;;;5.57;;
26936;SDS011;14495;48.116;11.676;2023-06-10T07:33:54;6.70;;;5.50;;
26936;SDS011;14495;48.116;11.676;2023-06-10T07:36:19;6.65;;;5.05;;
26936;SDS011;14495;48.116;11.676;2023-06-10T07:38:44;5.53;;;4.32;;
26936;SDS011;14495;48.116;11.676;2023-06-10T07:41:12;7.53;;;4.72;;
26936;SDS011;14495;48.116;11.676;2023-06-10T07:43:37;9.85;;;4.43;;
26936;SDS011;14495;48.116;11.676;2023-06-10T07:46:03;5.53;;;4.47;;
26936;SDS011;14495;48.116;11.676;2023-06-10T07:48:30;4.80;;;3.90;;
26936;SDS011;14495;48.116;11.676;2023-06-10T07:50:55;8.75;;;3.92;;
26936;SDS011;14495;48.116;11.676;2023-06-10T07:53:21;6.70;;;4.43;;
26936;SDS011;14495;48.116;11.676;2023-06-10T07:55:46;4.80;;;3.97;;
26936;SDS011;14495;48.116;11.676;2023-06-10T07:58:11;6.03;;;4.45;;
26936;SDS011;14495;48.116;11.676;2023-06-10T08:00:37;4.57;;;3.72;;
26936;SDS011;14495;48.116;11.676;2023-06-10T08:03:02;5.57;;;3.88;;
26936;SDS011;14495;48.116;11.676;2023-06-10T08:05:27;4.70;;;3.50;;
26936;SDS011;14495;48.116;11.676;2023-06-10T08:07:53;5.63;;;3.97;;
26936;SDS011;14495;48.116;11.676;2023-06-10T08:10:18;4.53;;;3.65;;
26936;SDS011;14495;48.116;11.676;2023-06-10T08:12:43;4.97;;;3.80;;
26936;SDS011;14495;48.116;11.676;2023-06-10T08:15:12;4.43;;;3.85;;
26936;SDS011;14495;48.116;11.676;2023-06-10T08:17:37;5.15;;;3.70;;
26936;SDS011;14495;48.116;11.676;2023-06-10T08:20:03;7.40;;;5.10;;
26936;SDS011;14495;48.116;11.676;2023-06-10T08:22:29;5.55;;;4.10;;
26936;SDS011;14495;48.116;11.676;2023-06-10T08:24:54;5.18;;;4.40;;
26936;SDS011;14495;48.116;11.676;2023-06-10T08:27:21;5.30;;;3.92;;
26936;SDS011;14495;48.116;11.676;2023-06-10T08:29:46;5.30;;;4.13;;
26936;SDS011;14495;48.116;11.676;2023-06-10T08:32:11;7.80;;;4.80;;
26936;SDS011;14495;48.116;11.676;2023-06-10T08:34:37;5.78;;;4.07;;
26936;SDS011;14495;48.116;11.676;2023-06-10T08:37:02;4.38;;;3.75;;
26936;SDS011;14495;48.116;11.676;2023-06-10T08:39:29;4.75;;;3.50;;
26936;SDS011;14495;48.116;11.676;2023-06-10T08:42:02;3.85;;;3.13;;
26936;SDS011;14495;48.116;11.676;2023-06-10T08:44:31;4.68;;;3.15;;
26936;SDS011;14495;48.116;11.676;2023-06-10T08:47:03;4.38;;;3.10;;
26936;SDS011;14495;48.116;11.676;2023-06-10T08:49:34;4.57;;;3.20;;
26936;SDS011;14495;48.116;11.676;2023-06-10T08:54:31;3.55;;;2.67;;
26936;SDS011;14495;48.116;11.676;2023-06-10T08:57:00;3.38;;;2.60;;
26936;SDS011;14495;48.116;11.676;2023-06-10T08:59:28;6.07;;;4.20;;
26936;SDS011;14495;48.116;11.676;2023-06-10T09:01:54;2.90;;;2.60;;
26936;SDS011;14495;48.116;11.676;2023-06-10T09:04:20;3.75;;;2.72;;
26936;SDS011;14495;48.116;11.676;2023-06-10T09:06:45;6.07;;;4.28;;
26936;SDS011;14495;48.116;11.676;2023-06-10T09:09:11;5.15;;;2.85;;
26936;SDS011;14495;48.116;11.676;2023-06-10T09:11:38;4.13;;;2.90;;
26936;SDS011;14495;48.116;11.676;2023-06-10T09:14:05;4.40;;;2.95;;
26936;SDS011;14495;48.116;11.676;2023-06-10T09:16:31;4.30;;;3.22;;
26936;SDS011;14495;48.116;11.676;2023-06-10T09:18:56;4.88;;;3.53;;
26936;SDS011;14495;48.116;11.676;2023-06-10T09:21:24;5.78;;;4.10;;
26936;SDS011;14495;48.116;11.676;2023-06-10T09:23:51;4.78;;;4.05;;
26936;SDS011;14495;48.116;11.676;2023-06-10T09:26:17;5.45;;;3.65;;
26936;SDS011;14495;48.116;11.676;2023-06-10T09:28:49;5.25;;;4.03;;
26936;SDS011;14495;48.116;11.676;2023-06-10T09:31:17;6.57;;;3.20;;
26936;SDS011;14495;48.116;11.676;2023-06-10T09:33:46;8.65;;;3.50;;
26936;SDS011;14495;48.116;11.676;2023-06-10T09:36:20;7.82;;;3.50;;
26936;SDS011;14495;48.116;11.676;2023-06-10T09:38:46;4.38;;;3.40;;
26936;SDS011;14495;48.116;11.676;2023-06-10T09:41:15;4.10;;;3.30;;
26936;SDS011;14495;48.116;11.676;2023-06-10T09:43:44;5.55;;;3.47;;
26936;SDS011;14495;48.116;11.676;2023-06-10T09:46:20;5.40;;;4.20;;
26936;SDS011;14495;48.116;11.676;2023-06-10T09:48:46;4.65;;;3.65;;
26936;SDS011;14495;48.116;11.676;2023-06-10T09:51:15;5.72;;;3.83;;
26936;SDS011;14495;48.116;11.676;2023-06-10T09:56:12;6.10;;;3.45;;
26936;SDS011;14495;48.116;11.676;2023-06-10T09:58:38;4.55;;;3.70;;
26936;SDS011;14495;48.116;11.676;2023-06-10T10:01:11;4.65;;;3.40;;
26936;SDS011;14495;48.116;11.676;2023-06-10T10:03:44;5.35;;;3.38;;
26936;SDS011;14495;48.116;11.676;2023-06-10T10:06:15;4.80;;;4.00;;
26936;SDS011;14495;48.116;11.676;2023-06-10T10:08:42;6.45;;;3.33;;
26936;SDS011;14495;48.116;11.676;2023-06-10T10:11:08;5.28;;;3.65;;
26936;SDS011;14495;48.116;11.676;2023-06-10T10:13:34;4.68;;;2.97;;
26936;SDS011;14495;48.116;11.676;2023-06-10T10:16:01;4.80;;;3.53;;
26936;SDS011;14495;48.116;11.676;2023-06-10T10:18:31;4.32;;;3.25;;
26936;SDS011;14495;48.116;11.676;2023-06-10T10:21:00;3.83;;;3.17;;
26936;SDS011;14495;48.116;11.676;2023-06-10T10:23:32;4.15;;;3.45;;
26936;SDS011;14495;48.116;11.676;2023-06-10T10:26:04;4.55;;;2.97;;
26936;SDS011;14495;48.116;11.676;2023-06-10T10:28:41;3.88;;;3.40;;
26936;SDS011;14495;48.116;11.676;2023-06-10T10:31:13;3.95;;;3.08;;
26936;SDS011;14495;48.116;11.676;2023-06-10T10:36:27;4.85;;;3.03;;
26936;SDS011;14495;48.116;11.676;2023-06-10T10:38:53;3.17;;;2.47;;
26936;SDS011;14495;48.116;11.676;2023-06-10T10:41:19;4.40;;;2.97;;
26936;SDS011;14495;48.116;11.676;2023-06-10T10:43:45;3.90;;;3.00;;
26936;SDS011;14495;48.116;11.676;2023-06-10T10:46:16;8.35;;;3.20;;
26936;SDS011;14495;48.116;11.676;2023-06-10T10:48:42;4.63;;;2.95;;
26936;SDS011;14495;48.116;11.676;2023-06-10T10:51:09;4.38;;;2.90;;
26936;SDS011;14495;48.116;11.676;2023-06-10T10:53:38;4.30;;;3.00;;
26936;SDS011;14495;48.116;11.676;2023-06-10T10:56:04;6.88;;;3.08;;
26936;SDS011;14495;48.116;11.676;2023-06-10T10:58:32;3.45;;;2.63;;
26936;SDS011;14495;48.116;11.676;2023-06-10T11:01:00;4.18;;;2.53;;
26936;SDS011;14495;48.116;11.676;2023-06-10T11:03:44;4.75;;;3.13;;
26936;SDS011;14495;48.116;11.676;2023-06-10T11:06:12;4.60;;;2.90;;
26936;SDS011;14495;48.116;11.676;2023-06-10T11:11:23;2.65;;;2.22;;
26936;SDS011;14495;48.116;11.676;2023-06-10T11:16:38;3.90;;;2.73;;
26936;SDS011;14495;48.116;11.676;2023-06-10T11:19:07;4.35;;;2.38;;
26936;SDS011;14495;48.116;11.676;2023-06-10T11:21:37;5.97;;;2.85;;
26936;SDS011;14495;48.116;11.676;2023-06-10T11:24:22;4.80;;;2.80;;
26936;SDS011;14495;48.116;11.676;2023-06-10T11:26:48;3.20;;;2.50;;
26936;SDS011;14495;48.116;11.676;2023-06-10T11:29:14;3.10;;;2.53;;
26936;SDS011;14495;48.116;11.676;2023-06-10T11:34:24;3.67;;;2.45;;
26936;SDS011;14495;48.116;11.676;2023-06-10T11:36:51;4.75;;;2.70;;
26936;SDS011;14495;48.116;11.676;2023-06-10T11:39:20;3.05;;;2.30;;
26936;SDS011;14495;48.116;11.676;2023-06-10T11:41:46;3.97;;;2.47;;
26936;SDS011;14495;48.116;11.676;2023-06-10T11:44:12;3.05;;;2.00;;
26936;SDS011;14495;48.116;11.676;2023-06-10T11:46:39;2.85;;;2.50;;
26936;SDS011;14495;48.116;11.676;2023-06-10T11:49:05;2.90;;;2.20;;
26936;SDS011;14495;48.116;11.676;2023-06-10T11:51:32;3.58;;;2.45;;
26936;SDS011;14495;48.116;11.676;2023-06-10T11:54:02;3.00;;;2.20;;
26936;SDS011;14495;48.116;11.676;2023-06-10T11:56:29;2.60;;;1.92;;
26936;SDS011;14495;48.116;11.676;2023-06-10T11:58:59;2.45;;;2.05;;
26936;SDS011;14495;48.116;11.676;2023-06-10T12:01:36;2.13;;;1.70;;
26936;SDS011;14495;48.116;11.676;2023-06-10T12:04:03;3.33;;;2.17;;
26936;SDS011;14495;48.116;11.676;2023-06-10T12:09:24;2.60;;;1.70;;
26936;SDS011;14495;48.116;11.676;2023-06-10T12:11:55;3.92;;;2.13;;
26936;SDS011;14495;48.116;11.676;2023-06-10T12:17:20;1.90;;;1.70;;
26936;SDS011;14495;48.116;11.676;2023-06-10T12:19:47;2.17;;;1.70;;
26936;SDS011;14495;48.116;11.676;2023-06-10T12:22:13;2.50;;;1.85;;
26936;SDS011;14495;48.116;11.676;2023-06-10T12:24:45;2.38;;;1.90;;
26936;SDS011;14495;48.116;11.676;2023-06-10T12:27:22;1.75;;;1.50;;
26936;SDS011;14495;48.116;11.676;2023-06-10T12:29:51;1.90;;;1.58;;
26936;SDS011;14495;48.116;11.676;2023-06-10T12:32:20;2.17;;;1.67;;
26936;SDS011;14495;48.116;11.676;2023-06-10T12:34:51;2.35;;;1.75;;
26936;SDS011;14495;48.116;11.676;2023-06-10T12:37:29;2.17;;;1.60;;
26936;SDS011;14495;48.116;11.676;2023-06-10T12:39:54;2.17;;;1.70;;
26936;SDS011;14495;48.116;11.676;2023-06-10T12:42:22;2.35;;;1.70;;
26936;SDS011;14495;48.116;11.676;2023-06-10T12:44:52;2.88;;;2.00;;
26936;SDS011;14495;48.116;11.676;2023-06-10T12:47:18;3.22;;;1.90;;
26936;SDS011;14495;48.116;11.676;2023-06-10T12:49:46;2.65;;;2.17;;
26936;SDS011;14495;48.116;11.676;2023-06-10T12:52:15;2.70;;;1.83;;
26936;SDS011;14495;48.116;11.676;2023-06-10T12:54:41;2.65;;;2.08;;
26936;SDS011;14495;48.116;11.676;2023-06-10T12:57:07;3.40;;;2.40;;
26936;SDS011;14495;48.116;11.676;2023-06-10T12:59:32;3.38;;;2.47;;
26936;SDS011;14495;48.116;11.676;2023-06-10T13:01:58;3.85;;;2.65;;
26936;SDS011;14495;48.116;11.676;2023-06-10T13:04:26;3.65;;;2.63;;
26936;SDS011;14495;48.116;11.676;2023-06-10T13:06:51;4.00;;;2.83;;
26936;SDS011;14495;48.116;11.676;2023-06-10T13:09:17;3.42;;;2.80;;
26936;SDS011;14495;48.116;11.676;2023-06-10T13:11:42;3.72;;;2.92;;
26936;SDS011;14495;48.116;11.676;2023-06-10T13:14:08;4.10;;;2.80;;
26936;SDS011;14495;48.116;11.676;2023-06-10T13:16:34;3.67;;;2.55;;
26936;SDS011;14495;48.116;11.676;2023-06-10T13:19:01;3.60;;;2.55;;
26936;SDS011;14495;48.116;11.676;2023-06-10T13:21:27;2.95;;;2.65;;
26936;SDS011;14495;48.116;11.676;2023-06-10T13:23:53;4.13;;;2.78;;
26936;SDS011;14495;48.116;11.676;2023-06-10T13:26:18;3.53;;;2.88;;
26936;SDS011;14495;48.116;11.676;2023-06-10T13:28:44;3.45;;;2.60;;
26936;SDS011;14495;48.116;11.676;2023-06-10T13:31:09;2.97;;;2.30;;
26936;SDS011;14495;48.116;11.676;2023-06-10T13:33:35;3.05;;;2.63;;
26936;SDS011;14495;48.116;11.676;2023-06-10T13:36:00;3.25;;;2.58;;
26936;SDS011;14495;48.116;11.676;2023-06-10T13:38:26;3.15;;;2.40;;
26936;SDS011;14495;48.116;11.676;2023-06-10T13:40:51;3.28;;;2.45;;
26936;SDS011;14495;48.116;11.676;2023-06-10T13:43:20;4.68;;;1.83;;
26936;SDS011;14495;48.116;11.676;2023-06-10T13:45:45;3.50;;;2.50;;
26936;SDS011;14495;48.116;11.676;2023-06-10T13:48:13;3.65;;;2.03;;
26936;SDS011;14495;48.116;11.676;2023-06-10T13:50:38;4.78;;;2.10;;
26936;SDS011;14495;48.116;11.676;2023-06-10T13:53:03;1.90;;;1.60;;
26936;SDS011;14495;48.116;11.676;2023-06-10T13:55:29;3.17;;;2.40;;
26936;SDS011;14495;48.116;11.676;2023-06-10T13:57:54;3.05;;;2.22;;
26936;SDS011;14495;48.116;11.676;2023-06-10T14:00:20;2.83;;;2.40;;
26936;SDS011;14495;48.116;11.676;2023-06-10T14:02:46;3.60;;;2.80;;
26936;SDS011;14495;48.116;11.676;2023-06-10T14:05:11;3.17;;;2.35;;
26936;SDS011;14495;48.116;11.676;2023-06-10T14:07:36;4.05;;;2.05;;
26936;SDS011;14495;48.116;11.676;2023-06-10T14:10:02;3.08;;;1.90;;
26936;SDS011;14495;48.116;11.676;2023-06-10T14:12:31;4.28;;;2.53;;
26936;SDS011;14495;48.116;11.676;2023-06-10T14:14:56;3.25;;;2.47;;
26936;SDS011;14495;48.116;11.676;2023-06-10T14:17:21;2.85;;;2.20;;
26936;SDS011;14495;48.116;11.676;2023-06-10T14:19:48;5.90;;;2.40;;
26936;SDS011;14495;48.116;11.676;2023-06-10T14:22:15;3.95;;;2.58;;
26936;SDS011;14495;48.116;11.676;2023-06-10T14:24:41;4.25;;;2.65;;
26936;SDS011;14495;48.116;11.676;2023-06-10T14:27:06;2.97;;;2.40;;
26936;SDS011;14495;48.116;11.676;2023-06-10T14:29:31;3.33;;;2.47;;
26936;SDS011;14495;48.116;11.676;2023-06-10T14:31:58;2.50;;;2.05;;
26936;SDS011;14495;48.116;11.676;2023-06-10T14:34:24;3.45;;;2.13;;
26936;SDS011;14495;48.116;11.676;2023-06-10T14:36:53;1.77;;;1.50;;
26936;SDS011;14495;48.116;11.676;2023-06-10T14:39:19;2.70;;;2.33;;
26936;SDS011;14495;48.116;11.676;2023-06-10T14:41:45;3.75;;;2.10;;
26936;SDS011;14495;48.116;11.676;2023-06-10T14:44:10;4.28;;;2.30;;
26936;SDS011;14495;48.116;11.676;2023-06-10T14:46:35;2.25;;;1.73;;
26936;SDS011;14495;48.116;11.676;2023-06-10T14:49:01;3.47;;;2.00;;
26936;SDS011;14495;48.116;11.676;2023-06-10T14:51:27;2.97;;;2.30;;
26936;SDS011;14495;48.116;11.676;2023-06-10T14:53:53;2.28;;;1.80;;
26936;SDS011;14495;48.116;11.676;2023-06-10T14:56:18;2.38;;;1.92;;
26936;SDS011;14495;48.116;11.676;2023-06-10T14:58:43;2.65;;;2.35;;